Time,TemperatureF,DewpointF,PressureIn,WindDirection,WindDirectionDegrees,WindSpeedMPH,WindSpeedGustMPH,Humidity,HourlyPrecipIn,Conditions,Clouds,dailyrainin,SolarRadiationWatts/m^2,SoftwareType,DateUTC
2013-11-19 00:00:00,55.1,36.3,29.88,WNW,302,6.0,13.0,49,0.00,,CLR,0.00,0.00,VWS V14.01,2013-11-19 05:00:00,
2013-11-19 00:01:00,55.1,36.3,29.88,WNW,290,5.0,6.0,49,0.00,,CLR,0.00,0.00,VWS V14.01,2013-11-19 05:01:00,
2013-11-19 00:06:00,55.1,35.8,29.88,NW,313,3.0,7.0,48,0.00,,CLR,0.00,0.00,VWS V14.01,2013-11-19 05:06:00,
2013-11-19 00:11:00,55.0,34.6,29.88,NW,321,3.0,7.0,46,0.00,,CLR,0.00,0.00,VWS V14.01,2013-11-19 05:11:00,
2013-11-19 00:16:00,54.7,35.4,29.88,West,271,2.0,7.0,48,0.00,,CLR,0.00,0.00,VWS V14.01,2013-11-19 05:16:00,
2013-11-19 00:21:00,54.5,36.8,29.88,WNW,298,3.0,7.0,51,0.00,,CLR,0.00,0.00,VWS V14.01,2013-11-19 05:21:00,
2013-11-19 00:26:00,54.4,35.7,29.88,West,275,4.0,10.0,49,0.00,,CLR,0.00,0.00,VWS V14.01,2013-11-19 05:26:00,
2013-11-19 00:30:00,54.2,38.4,29.87,WNW,286,5.0,10.0,55,0.00,,CLR,0.00,0.00,VWS V14.01,2013-11-19 05:30:00,
2013-11-19 00:31:00,54.1,38.3,29.87,WNW,290,7.0,7.0,55,0.00,,CLR,0.00,0.00,VWS V14.01,2013-11-19 05:31:00,
2013-11-19 00:36:00,53.9,35.7,29.87,West,276,4.0,10.0,50,0.00,,CLR,0.00,0.00,VWS V14.01,2013-11-19 05:36:00,
2013-11-19 00:41:00,53.8,37.1,29.87,WNW,288,4.0,10.0,53,0.00,,CLR,0.00,0.00,VWS V14.01,2013-11-19 05:41:00,
2013-11-19 00:46:00,53.6,35.4,29.87,West,281,3.0,10.0,50,0.00,,CLR,0.00,0.00,VWS V14.01,2013-11-19 05:46:00,
2013-11-19 00:51:00,53.6,36.9,29.87,WNW,282,3.0,10.0,53,0.00,,CLR,0.00,0.00,VWS V14.01,2013-11-19 05:51:00,
2013-11-19 00:56:00,53.6,36.4,29.87,WNW,301,6.0,10.0,52,0.00,,CLR,0.00,0.00,VWS V14.01,2013-11-19 05:56:00,
2013-11-19 01:00:00,53.5,36.3,29.87,WNW,297,2.0,10.0,52,0.00,,CLR,0.00,0.00,VWS V14.01,2013-11-19 06:00:00,
2013-11-19 01:01:00,53.5,36.8,29.87,NW,304,7.0,7.0,53,0.00,,CLR,0.00,0.00,VWS V14.01,2013-11-19 06:01:00,
2013-11-19 01:06:00,53.3,36.1,29.87,NW,304,1.0,7.0,52,0.00,,CLR,0.00,0.00,VWS V14.01,2013-11-19 06:06:00,
2013-11-19 01:11:00,53.1,37.8,29.87,WNW,288,7.0,9.0,56,0.00,,CLR,0.00,0.00,VWS V14.01,2013-11-19 06:11:00,
2013-11-19 01:16:00,52.9,36.7,29.87,NW,306,5.0,9.0,54,0.00,,CLR,0.00,0.00,VWS V14.01,2013-11-19 06:16:00,
2013-11-19 01:21:00,53.1,36.0,29.87,NW,304,5.0,9.0,52,0.00,,CLR,0.00,0.00,VWS V14.01,2013-11-19 06:21:00,
2013-11-19 01:26:00,52.9,38.1,29.87,NW,309,6.0,9.0,57,0.00,,CLR,0.00,0.00,VWS V14.01,2013-11-19 06:26:00,
2013-11-19 01:30:00,52.8,35.7,29.88,West,265,2.0,9.0,52,0.00,,CLR,0.00,0.00,VWS V14.01,2013-11-19 06:30:00,
2013-11-19 01:31:00,52.8,37.1,29.88,WSW,255,0.0,4.0,55,0.00,,CLR,0.00,0.00,VWS V14.01,2013-11-19 06:31:00,
2013-11-19 01:36:00,52.8,36.2,29.88,NNW,327,4.0,9.0,53,0.00,,CLR,0.00,0.00,VWS V14.01,2013-11-19 06:36:00,
2013-11-19 01:41:00,52.8,37.5,29.88,NW,307,6.0,9.0,56,0.00,,CLR,0.00,0.00,VWS V14.01,2013-11-19 06:41:00,
2013-11-19 01:46:00,52.8,36.2,29.88,NW,304,3.0,9.0,53,0.00,,CLR,0.00,0.00,VWS V14.01,2013-11-19 06:46:00,
2013-11-19 01:51:00,52.8,36.6,29.88,NNW,342,5.0,9.0,54,0.00,,CLR,0.00,0.00,VWS V14.01,2013-11-19 06:51:00,
2013-11-19 01:56:00,52.8,34.2,29.88,NW,309,6.0,11.0,49,0.00,,CLR,0.00,0.00,VWS V14.01,2013-11-19 06:56:00,
2013-11-19 02:00:00,52.8,34.2,29.88,WNW,300,6.0,11.0,49,0.00,,CLR,0.00,0.00,VWS V14.01,2013-11-19 07:00:00,
2013-11-19 02:01:00,52.8,34.7,29.88,NW,313,5.0,6.0,50,0.00,,CLR,0.00,0.00,VWS V14.01,2013-11-19 07:01:00,
2013-11-19 02:06:00,53.1,36.9,29.88,NE,49,7.0,13.0,54,0.00,,CLR,0.00,0.00,VWS V14.01,2013-11-19 07:06:00,
2013-11-19 02:11:00,53.2,36.0,29.88,NW,313,6.0,13.0,52,0.00,,CLR,0.00,0.00,VWS V14.01,2013-11-19 07:11:00,
2013-11-19 02:16:00,53.1,36.4,29.88,NW,318,2.0,13.0,53,0.00,,CLR,0.00,0.00,VWS V14.01,2013-11-19 07:16:00,
2013-11-19 02:21:00,53.1,35.0,29.88,NNW,331,3.0,13.0,50,0.00,,CLR,0.00,0.00,VWS V14.01,2013-11-19 07:21:00,
2013-11-19 02:26:00,53.1,34.0,29.88,NNW,345,6.0,13.0,48,0.00,,CLR,0.00,0.00,VWS V14.01,2013-11-19 07:26:00,
2013-11-19 02:30:00,52.9,34.3,29.88,NW,312,5.0,13.0,49,0.00,,CLR,0.00,0.00,VWS V14.01,2013-11-19 07:30:00,
2013-11-19 02:31:00,52.9,33.8,29.88,NW,304,6.0,10.0,48,0.00,,CLR,0.00,0.00,VWS V14.01,2013-11-19 07:31:00,
2013-11-19 02:36:00,53.1,32.9,29.88,NNW,337,4.0,10.0,46,0.00,,CLR,0.00,0.00,VWS V14.01,2013-11-19 07:36:00,
2013-11-19 02:41:00,53.2,34.0,29.88,NNW,327,7.0,10.0,48,0.00,,CLR,0.00,0.00,VWS V14.01,2013-11-19 07:41:00,
2013-11-19 02:46:00,53.3,38.0,29.88,NW,312,9.0,12.0,56,0.00,,CLR,0.00,0.00,VWS V14.01,2013-11-19 07:46:00,
2013-11-19 02:51:00,53.1,36.0,29.88,NNW,329,4.0,13.0,52,0.00,,CLR,0.00,0.00,VWS V14.01,2013-11-19 07:51:00,
2013-11-19 02:56:00,53.1,35.0,29.88,NW,309,5.0,13.0,50,0.00,,CLR,0.00,0.00,VWS V14.01,2013-11-19 07:56:00,
2013-11-19 03:00:00,52.9,34.3,29.89,NW,324,9.0,13.0,49,0.00,,CLR,0.00,0.00,VWS V14.01,2013-11-19 08:00:00,
2013-11-19 03:01:00,52.8,34.2,29.89,NNW,332,5.0,9.0,49,0.00,,CLR,0.00,0.00,VWS V14.01,2013-11-19 08:01:00,
2013-11-19 03:06:00,52.8,34.2,29.89,WNW,291,4.0,9.0,49,0.00,,CLR,0.00,0.00,VWS V14.01,2013-11-19 08:06:00,
2013-11-19 03:11:00,53.1,36.0,29.89,NNW,327,7.0,10.0,52,0.00,,CLR,0.00,0.00,VWS V14.01,2013-11-19 08:11:00,
2013-11-19 03:16:00,53.1,36.9,29.89,NW,325,6.0,12.0,54,0.00,,CLR,0.00,0.00,VWS V14.01,2013-11-19 08:16:00,
2013-11-19 03:21:00,53.1,34.0,29.89,NNE,13,11.0,15.0,48,0.00,,CLR,0.00,0.00,VWS V14.01,2013-11-19 08:21:00,
2013-11-19 03:26:00,52.9,33.2,29.89,NNE,13,10.0,15.0,47,0.00,,CLR,0.00,0.00,VWS V14.01,2013-11-19 08:26:00,
2013-11-19 03:30:00,53.1,38.7,29.89,North,360,6.0,15.0,58,0.00,,CLR,0.00,0.00,VWS V14.01,2013-11-19 08:30:00,
2013-11-19 03:31:00,53.1,38.7,29.89,NNW,346,11.0,12.0,58,0.00,,CLR,0.00,0.00,VWS V14.01,2013-11-19 08:31:00,
2013-11-19 03:36:00,52.9,36.2,29.89,NW,315,11.0,15.0,53,0.00,,CLR,0.00,0.00,VWS V14.01,2013-11-19 08:36:00,
2013-11-19 03:40:00,52.6,36.0,29.89,NNW,336,10.0,15.0,53,0.00,,CLR,0.00,0.00,VWS V14.01,2013-11-19 08:40:00,
2013-11-19 03:45:00,52.3,36.2,29.89,NNE,17,6.0,15.0,54,0.00,,CLR,0.00,0.00,VWS V14.01,2013-11-19 08:45:00,
2013-11-19 03:50:00,52.2,35.6,29.89,North,351,7.0,15.0,53,0.00,,CLR,0.00,0.00,VWS V14.01,2013-11-19 08:50:00,
2013-11-19 03:55:00,52.2,35.6,29.89,NNW,335,7.0,15.0,53,0.00,,CLR,0.00,0.00,VWS V14.01,2013-11-19 08:55:00,
2013-11-19 04:00:00,51.9,34.8,29.90,North,355,6.0,6.0,52,0.00,,CLR,0.00,0.00,VWS V14.01,2013-11-19 09:00:00,
2013-11-19 04:05:00,51.4,34.4,29.90,NW,307,5.0,10.0,52,0.00,,CLR,0.00,0.00,VWS V14.01,2013-11-19 09:05:00,
2013-11-19 04:10:00,51.1,35.0,29.90,NNW,336,5.0,10.0,54,0.00,,CLR,0.00,0.00,VWS V14.01,2013-11-19 09:10:00,
2013-11-19 04:15:00,51.0,31.5,29.90,NW,324,5.0,13.0,47,0.00,,CLR,0.00,0.00,VWS V14.01,2013-11-19 09:15:00,
2013-11-19 04:20:00,50.8,33.3,29.90,NW,315,3.0,13.0,51,0.00,,CLR,0.00,0.00,VWS V14.01,2013-11-19 09:20:00,
2013-11-19 04:25:00,50.8,32.3,29.90,WNW,291,8.0,13.0,49,0.00,,CLR,0.00,0.00,VWS V14.01,2013-11-19 09:25:00,
2013-11-19 04:30:00,50.8,35.2,29.91,NW,317,5.0,9.0,55,0.00,,CLR,0.00,0.00,VWS V14.01,2013-11-19 09:30:00,
2013-11-19 04:35:00,50.8,36.1,29.91,NNW,345,2.0,9.0,57,0.00,,CLR,0.00,0.00,VWS V14.01,2013-11-19 09:35:00,
2013-11-19 04:40:00,50.5,32.6,29.91,NNW,327,5.0,11.0,50,0.00,,CLR,0.00,0.00,VWS V14.01,2013-11-19 09:40:00,
2013-11-19 04:45:00,50.7,33.7,29.91,NW,315,4.0,12.0,52,0.00,,CLR,0.00,0.00,VWS V14.01,2013-11-19 09:45:00,
2013-11-19 04:50:00,50.5,33.1,29.91,NW,313,4.0,12.0,51,0.00,,CLR,0.00,0.00,VWS V14.01,2013-11-19 09:50:00,
2013-11-19 04:55:00,50.4,34.9,29.91,NW,316,5.0,12.0,55,0.00,,CLR,0.00,0.00,VWS V14.01,2013-11-19 09:55:00,
2013-11-19 05:00:00,50.2,35.1,29.92,WNW,300,4.0,5.0,56,0.00,,CLR,0.00,0.00,VWS V14.01,2013-11-19 10:00:00,
2013-11-19 05:05:00,50.2,35.6,29.92,NW,308,3.0,6.0,57,0.00,,CLR,0.00,0.00,VWS V14.01,2013-11-19 10:05:00,
2013-11-19 05:10:00,50.1,36.3,29.92,NW,313,3.0,6.0,59,0.00,,CLR,0.00,0.00,VWS V14.01,2013-11-19 10:10:00,
2013-11-19 05:15:00,50.1,36.8,29.92,WNW,296,6.0,6.0,60,0.00,,CLR,0.00,0.00,VWS V14.01,2013-11-19 10:15:00,
2013-11-19 05:20:00,49.9,37.4,29.92,West,279,5.0,7.0,62,0.00,,CLR,0.00,0.00,VWS V14.01,2013-11-19 10:20:00,
2013-11-19 05:25:00,49.4,36.1,29.92,WNW,299,3.0,7.0,60,0.00,,CLR,0.00,0.00,VWS V14.01,2013-11-19 10:25:00,
2013-11-19 05:30:00,49.5,35.3,29.93,NW,315,5.0,5.0,58,0.00,,CLR,0.00,0.00,VWS V14.01,2013-11-19 10:30:00,
2013-11-19 05:35:00,49.5,37.0,29.93,NW,321,6.0,7.0,62,0.00,,CLR,0.00,0.00,VWS V14.01,2013-11-19 10:35:00,
2013-11-19 05:40:00,49.4,33.0,29.93,NNW,329,2.0,7.0,53,0.00,,CLR,0.00,0.00,VWS V14.01,2013-11-19 10:40:00,
2013-11-19 05:45:00,49.5,31.6,29.93,WNW,282,3.0,7.0,50,0.00,,CLR,0.00,0.00,VWS V14.01,2013-11-19 10:45:00,
2013-11-19 05:50:00,49.4,36.5,29.93,WNW,286,3.0,7.0,61,0.00,,CLR,0.00,0.00,VWS V14.01,2013-11-19 10:50:00,
2013-11-19 05:55:00,48.8,37.6,29.93,West,266,1.0,7.0,65,0.00,,CLR,0.00,0.00,VWS V14.01,2013-11-19 10:55:00,
2013-11-19 06:00:00,48.2,35.4,29.94,WSW,248,0.0,1.0,61,0.00,,CLR,0.00,0.00,VWS V14.01,2013-11-19 11:00:00,
2013-11-19 06:05:00,47.4,35.0,29.94,WSW,237,0.0,4.0,62,0.00,,CLR,0.00,0.00,VWS V14.01,2013-11-19 11:05:00,
2013-11-19 06:10:00,46.8,32.8,29.94,SW,229,0.0,4.0,58,0.00,,CLR,0.00,0.00,VWS V14.01,2013-11-19 11:10:00,
2013-11-19 06:15:00,47.0,33.0,29.95,SW,217,0.0,4.0,58,0.00,,CLR,0.00,0.00,VWS V14.01,2013-11-19 11:15:00,
2013-11-19 06:20:00,47.0,34.3,29.95,WSW,245,0.0,4.0,61,0.00,,CLR,0.00,0.00,VWS V14.01,2013-11-19 11:20:00,
2013-11-19 06:25:00,46.7,34.4,29.95,WSW,247,1.0,4.0,62,0.00,,CLR,0.00,0.00,VWS V14.01,2013-11-19 11:25:00,
2013-11-19 06:30:00,46.2,35.9,29.96,WSW,252,0.0,0.0,67,0.00,,CLR,0.00,0.00,VWS V14.01,2013-11-19 11:30:00,
2013-11-19 06:35:00,46.0,34.1,29.96,WSW,246,0.0,0.0,63,0.00,,CLR,0.00,0.00,VWS V14.01,2013-11-19 11:35:00,
2013-11-19 06:40:00,45.4,35.1,29.96,WSW,246,0.0,3.0,67,0.00,,CLR,0.00,0.00,VWS V14.01,2013-11-19 11:40:00,
2013-11-19 06:45:00,44.6,34.3,29.97,WSW,246,0.0,3.0,67,0.00,,CLR,0.00,0.00,VWS V14.01,2013-11-19 11:45:00,
2013-11-19 06:50:00,44.3,35.9,29.97,WSW,246,0.0,3.0,72,0.00,,CLR,0.00,0.00,VWS V14.01,2013-11-19 11:50:00,
2013-11-19 06:55:00,44.1,36.7,29.97,WSW,246,0.0,3.0,75,0.00,,CLR,0.00,0.00,VWS V14.01,2013-11-19 11:55:00,
2013-11-19 07:00:00,43.8,35.4,29.98,WSW,246,0.0,0.0,72,0.00,,CLR,0.00,0.00,VWS V14.01,2013-11-19 12:00:00,
2013-11-19 07:05:00,43.5,35.4,29.98,WSW,246,0.0,0.0,73,0.00,,CLR,0.00,5.00,VWS V14.01,2013-11-19 12:05:00,
2013-11-19 07:10:00,43.3,35.6,29.98,WSW,246,0.0,0.0,74,0.00,,CLR,0.00,7.00,VWS V14.01,2013-11-19 12:10:00,
2013-11-19 07:15:00,43.2,36.8,29.99,WSW,246,0.0,0.0,78,0.00,,CLR,0.00,12.00,VWS V14.01,2013-11-19 12:15:00,
2013-11-19 07:20:00,43.1,35.7,29.99,WSW,246,0.0,1.0,75,0.00,,CLR,0.00,19.00,VWS V14.01,2013-11-19 12:20:00,
2013-11-19 07:25:00,43.1,36.1,29.99,WSW,246,0.0,1.0,76,0.00,,CLR,0.00,26.00,VWS V14.01,2013-11-19 12:25:00,
2013-11-19 07:30:00,43.2,36.2,30.00,WSW,246,0.0,0.0,76,0.00,,CLR,0.00,33.00,VWS V14.01,2013-11-19 12:30:00,
2013-11-19 07:35:00,43.6,36.9,30.00,WSW,246,0.0,0.0,77,0.00,,CLR,0.00,44.00,VWS V14.01,2013-11-19 12:35:00,
2013-11-19 07:40:00,44.1,38.0,30.00,WSW,246,0.0,0.0,79,0.00,,CLR,0.00,51.00,VWS V14.01,2013-11-19 12:40:00,
2013-11-19 07:45:00,44.6,38.2,30.00,WSW,246,0.0,1.0,78,0.00,,CLR,0.00,58.00,VWS V14.01,2013-11-19 12:45:00,
2013-11-19 07:50:00,45.1,38.7,30.00,WSW,246,0.0,1.0,78,0.00,,CLR,0.00,62.00,VWS V14.01,2013-11-19 12:50:00,
2013-11-19 07:55:00,46.1,35.4,30.00,SSW,195,0.0,5.0,66,0.00,,CLR,0.00,69.00,VWS V14.01,2013-11-19 12:55:00,
2013-11-19 08:00:00,47.0,35.9,30.00,SSW,195,0.0,5.0,65,0.00,,CLR,0.00,178.00,VWS V14.01,2013-11-19 13:00:00,
2013-11-19 08:05:00,47.7,35.3,30.00,SSW,195,0.0,3.0,62,0.00,,CLR,0.00,98.00,VWS V14.01,2013-11-19 13:05:00,
2013-11-19 08:10:00,47.9,35.9,30.00,SSW,195,0.0,3.0,63,0.00,,CLR,0.00,236.00,VWS V14.01,2013-11-19 13:10:00,
2013-11-19 08:15:00,48.3,35.1,30.01,SSW,195,0.0,3.0,60,0.00,,CLR,0.00,253.00,VWS V14.01,2013-11-19 13:15:00,
2013-11-19 08:20:00,49.1,36.2,30.01,South,182,0.0,4.0,61,0.00,,CLR,0.00,257.00,VWS V14.01,2013-11-19 13:20:00,
2013-11-19 08:25:00,49.4,34.4,30.01,South,174,1.0,5.0,56,0.00,,CLR,0.00,141.00,VWS V14.01,2013-11-19 13:25:00,
2013-11-19 08:30:00,49.2,35.5,30.01,South,169,4.0,5.0,59,0.00,,CLR,0.00,130.00,VWS V14.01,2013-11-19 13:30:00,
2013-11-19 08:35:00,48.9,33.9,30.01,SSE,155,4.0,6.0,56,0.00,,CLR,0.00,169.00,VWS V14.01,2013-11-19 13:35:00,
2013-11-19 08:40:00,48.9,33.5,30.01,SSE,155,0.0,6.0,55,0.00,,CLR,0.00,114.00,VWS V14.01,2013-11-19 13:40:00,
2013-11-19 08:45:00,49.1,33.7,30.02,SSE,155,0.0,6.0,55,0.00,,CLR,0.00,227.00,VWS V14.01,2013-11-19 13:45:00,
2013-11-19 08:50:00,49.4,33.9,30.02,SSE,155,0.0,6.0,55,0.00,,CLR,0.00,155.00,VWS V14.01,2013-11-19 13:50:00,
2013-11-19 08:55:00,49.8,33.8,30.02,SSE,155,0.0,6.0,54,0.00,,CLR,0.00,316.00,VWS V14.01,2013-11-19 13:55:00,
2013-11-19 09:00:00,50.5,34.5,30.02,SSE,155,0.0,6.0,54,0.00,,CLR,0.00,216.00,VWS V14.01,2013-11-19 14:00:00,
2013-11-19 09:05:00,51.1,35.0,30.02,SSE,155,0.0,1.0,54,0.00,,CLR,0.00,336.00,VWS V14.01,2013-11-19 14:05:00,
2013-11-19 09:10:00,51.4,35.8,30.02,SSE,155,0.0,2.0,55,0.00,,CLR,0.00,359.00,VWS V14.01,2013-11-19 14:10:00,
2013-11-19 09:15:00,51.6,35.5,30.03,SSE,155,0.0,2.0,54,0.00,,CLR,0.00,364.00,VWS V14.01,2013-11-19 14:15:00,
2013-11-19 09:20:00,51.7,37.0,30.03,SSE,155,2.0,2.0,57,0.00,,CLR,0.00,381.00,VWS V14.01,2013-11-19 14:20:00,
2013-11-19 09:25:00,51.3,35.2,30.03,SSE,155,0.0,2.0,54,0.00,,CLR,0.00,114.00,VWS V14.01,2013-11-19 14:25:00,
2013-11-19 09:28:00,51.3,35.7,30.03,SSE,155,0.0,2.0,55,0.00,,CLR,0.00,399.00,VWS V14.01,2013-11-19 14:28:00,
2013-11-19 09:30:00,51.1,36.4,30.04,SSE,155,0.0,2.0,57,0.00,,CLR,0.00,406.00,VWS V14.01,2013-11-19 14:30:00,
2013-11-19 09:33:00,51.0,36.3,30.04,SSE,155,0.0,1.0,57,0.00,,CLR,0.00,415.00,VWS V14.01,2013-11-19 14:33:00,
2013-11-19 09:38:00,51.4,36.7,30.04,SSE,155,0.0,1.0,57,0.00,,CLR,0.00,302.00,VWS V14.01,2013-11-19 14:38:00,
2013-11-19 09:43:00,51.1,38.1,30.04,SSE,151,0.0,4.0,61,0.00,,CLR,0.00,128.00,VWS V14.01,2013-11-19 14:43:00,
2013-11-19 09:48:00,51.3,38.3,30.04,SSE,151,1.0,4.0,61,0.00,,CLR,0.00,431.00,VWS V14.01,2013-11-19 14:48:00,
2013-11-19 09:53:00,51.6,39.4,30.04,SSE,148,0.0,4.0,63,0.00,,CLR,0.00,459.00,VWS V14.01,2013-11-19 14:53:00,
2013-11-19 09:58:00,52.0,39.4,30.04,SSE,148,0.0,4.0,62,0.00,,CLR,0.00,461.00,VWS V14.01,2013-11-19 14:58:00,
2013-11-19 10:00:00,52.3,37.1,30.05,SSE,148,0.0,4.0,56,0.00,,CLR,0.00,464.00,VWS V14.01,2013-11-19 15:00:00,
2013-11-19 10:03:00,52.5,38.6,30.05,SSE,148,2.0,3.0,59,0.00,,CLR,0.00,466.00,VWS V14.01,2013-11-19 15:03:00,
2013-11-19 10:08:00,52.0,37.7,30.05,SSE,148,0.0,3.0,58,0.00,,CLR,0.00,476.00,VWS V14.01,2013-11-19 15:08:00,
2013-11-19 10:13:00,52.3,39.3,30.05,SSE,148,0.0,3.0,61,0.00,,CLR,0.00,485.00,VWS V14.01,2013-11-19 15:13:00,
2013-11-19 10:18:00,52.5,39.0,30.05,SSE,148,0.0,3.0,60,0.00,,CLR,0.00,490.00,VWS V14.01,2013-11-19 15:18:00,
2013-11-19 10:23:00,52.6,39.1,30.05,SSE,148,1.0,3.0,60,0.00,,CLR,0.00,496.00,VWS V14.01,2013-11-19 15:23:00,
2013-11-19 10:28:00,52.9,37.7,30.05,SSE,148,0.0,3.0,56,0.00,,CLR,0.00,504.00,VWS V14.01,2013-11-19 15:28:00,
2013-11-19 10:30:00,53.2,38.4,30.05,SSE,148,0.0,3.0,57,0.00,,CLR,0.00,508.00,VWS V14.01,2013-11-19 15:30:00,
2013-11-19 10:33:00,53.3,38.5,30.05,SSE,148,0.0,1.0,57,0.00,,CLR,0.00,512.00,VWS V14.01,2013-11-19 15:33:00,
2013-11-19 10:37:00,53.3,39.3,30.05,SSE,148,0.0,1.0,59,0.00,,CLR,0.00,519.00,VWS V14.01,2013-11-19 15:37:00,
2013-11-19 10:42:00,53.1,38.3,30.05,SSE,148,0.0,1.0,57,0.00,,CLR,0.00,531.00,VWS V14.01,2013-11-19 15:42:00,
2013-11-19 10:47:00,52.6,37.8,30.05,SSE,148,0.0,1.0,57,0.00,,CLR,0.00,536.00,VWS V14.01,2013-11-19 15:47:00,
2013-11-19 10:52:00,52.3,38.4,30.05,SSE,149,1.0,2.0,59,0.00,,CLR,0.00,547.00,VWS V14.01,2013-11-19 15:52:00,
2013-11-19 10:57:00,52.3,36.6,30.05,SSE,149,0.0,2.0,55,0.00,,CLR,0.00,550.00,VWS V14.01,2013-11-19 15:57:00,
2013-11-19 11:00:00,52.3,36.6,30.05,SSE,149,0.0,2.0,55,0.00,,CLR,0.00,554.00,VWS V14.01,2013-11-19 16:00:00,
2013-11-19 11:02:00,52.3,37.1,30.05,SSE,149,0.0,1.0,56,0.00,,CLR,0.00,557.00,VWS V14.01,2013-11-19 16:02:00,
2013-11-19 11:07:00,52.8,36.2,30.05,SSE,149,0.0,1.0,53,0.00,,CLR,0.00,564.00,VWS V14.01,2013-11-19 16:07:00,
2013-11-19 11:12:00,53.3,37.1,30.05,SSE,149,0.0,1.0,54,0.00,,CLR,0.00,573.00,VWS V14.01,2013-11-19 16:12:00,
2013-11-19 11:17:00,53.8,36.6,30.06,SSE,149,0.0,2.0,52,0.00,,CLR,0.00,578.00,VWS V14.01,2013-11-19 16:17:00,
2013-11-19 11:22:00,54.1,36.4,30.06,SSE,149,0.0,2.0,51,0.00,,CLR,0.00,582.00,VWS V14.01,2013-11-19 16:22:00,
2013-11-19 11:27:00,54.4,36.2,30.06,SSE,149,0.0,2.0,50,0.00,,CLR,0.00,589.00,VWS V14.01,2013-11-19 16:27:00,
2013-11-19 11:30:00,54.4,34.6,30.05,SSE,149,0.0,3.0,47,0.00,,CLR,0.00,592.00,VWS V14.01,2013-11-19 16:30:00,
2013-11-19 11:32:00,54.4,34.6,30.05,SSE,149,0.0,0.0,47,0.00,,CLR,0.00,594.00,VWS V14.01,2013-11-19 16:32:00,
2013-11-19 11:38:00,54.8,34.4,30.05,SSE,148,0.0,3.0,46,0.00,,CLR,0.00,603.00,VWS V14.01,2013-11-19 16:38:00,
2013-11-19 11:43:00,54.8,34.4,30.05,SSE,148,0.0,4.0,46,0.00,,CLR,0.00,617.00,VWS V14.01,2013-11-19 16:43:00,
2013-11-19 11:47:00,54.7,34.3,30.05,SSE,148,0.0,4.0,46,0.00,,CLR,0.00,420.00,VWS V14.01,2013-11-19 16:47:00,
2013-11-19 11:52:00,54.8,32.2,30.05,SSE,148,0.0,4.0,42,0.00,,CLR,0.00,587.00,VWS V14.01,2013-11-19 16:52:00,
2013-11-19 11:57:00,55.0,31.1,30.05,SSE,148,0.0,4.0,40,0.00,,CLR,0.00,612.00,VWS V14.01,2013-11-19 16:57:00,
2013-11-19 12:00:00,57.2,24.4,30.02,ESE,123,1.0,9.0,28,0.00,,CLR,0.00,624.00,VWS V14.01,2013-11-19 17:00:00,
2013-11-19 12:02:00,55.4,31.5,30.04,SSE,150,0.0,4.0,40,0.00,,CLR,0.00,622.00,VWS V14.01,2013-11-19 17:02:00,
2013-11-19 12:07:00,55.3,31.4,30.04,SSE,149,0.0,4.0,40,0.00,,CLR,0.00,636.00,VWS V14.01,2013-11-19 17:07:00,
2013-11-19 12:12:00,55.6,27.7,30.04,SSE,150,0.0,4.0,34,0.00,,CLR,0.00,656.00,VWS V14.01,2013-11-19 17:12:00,
2013-11-19 12:17:00,56.0,28.0,30.03,East,87,2.0,5.0,34,0.00,,CLR,0.00,640.00,VWS V14.01,2013-11-19 17:17:00,
2013-11-19 12:22:00,56.2,25.2,30.03,ESE,102,1.0,5.0,30,0.00,,CLR,0.00,675.00,VWS V14.01,2013-11-19 17:22:00,
2013-11-19 12:27:00,56.7,27.9,30.03,East,79,7.0,7.0,33,0.00,,CLR,0.00,628.00,VWS V14.01,2013-11-19 17:27:00,
2013-11-19 12:30:00,56.5,30.6,30.03,ENE,76,3.0,7.0,37,0.00,,CLR,0.00,673.00,VWS V14.01,2013-11-19 17:30:00,
2013-11-19 12:32:00,56.5,29.9,30.03,NNE,26,1.0,5.0,36,0.00,,CLR,0.00,617.00,VWS V14.01,2013-11-19 17:32:00,
2013-11-19 12:35:00,56.6,30.6,30.03,NNE,33,3.0,5.0,37,0.00,,CLR,0.00,673.00,VWS V14.01,2013-11-19 17:35:00,
2013-11-19 12:40:00,56.9,28.8,30.03,NNE,33,0.0,5.0,34,0.00,,CLR,0.00,635.00,VWS V14.01,2013-11-19 17:40:00,
2013-11-19 12:45:00,56.6,30.0,30.02,East,92,7.0,9.0,36,0.00,,CLR,0.00,719.00,VWS V14.01,2013-11-19 17:45:00,
2013-11-19 12:50:00,56.5,28.5,30.02,ESE,123,0.0,9.0,34,0.00,,CLR,0.00,443.00,VWS V14.01,2013-11-19 17:50:00,
2013-11-19 12:55:00,56.9,25.8,30.02,ESE,123,3.0,9.0,30,0.00,,CLR,0.00,675.00,VWS V14.01,2013-11-19 17:55:00,
2013-11-19 13:00:00,57.0,24.2,30.02,ESE,123,2.0,9.0,28,0.00,,CLR,0.00,638.00,VWS V14.01,2013-11-19 18:00:00,
2013-11-19 13:05:00,57.5,27.1,30.02,ESE,123,0.0,4.0,31,0.00,,CLR,0.00,580.00,VWS V14.01,2013-11-19 18:05:00,
2013-11-19 13:10:00,57.5,25.5,30.02,ESE,123,1.0,4.0,29,0.00,,CLR,0.00,603.00,VWS V14.01,2013-11-19 18:10:00,
2013-11-19 13:15:00,57.6,24.8,30.02,ESE,123,3.0,4.0,28,0.00,,CLR,0.00,605.00,VWS V14.01,2013-11-19 18:15:00,
2013-11-19 13:20:00,57.6,24.8,30.02,SE,140,3.0,6.0,28,0.00,,CLR,0.00,598.00,VWS V14.01,2013-11-19 18:20:00,
2013-11-19 13:25:00,57.6,24.8,30.02,SSE,148,5.0,7.0,28,0.00,,CLR,0.00,589.00,VWS V14.01,2013-11-19 18:25:00,
2013-11-19 13:30:00,57.8,23.2,30.02,SSE,148,1.0,7.0,26,0.00,,CLR,0.00,584.00,VWS V14.01,2013-11-19 18:30:00,
2013-11-19 13:35:00,57.8,23.2,30.02,SSE,147,0.0,4.0,26,0.00,,CLR,0.00,577.00,VWS V14.01,2013-11-19 18:35:00,
2013-11-19 13:40:00,58.3,24.5,30.02,SSE,147,0.0,4.0,27,0.00,,CLR,0.00,571.00,VWS V14.01,2013-11-19 18:40:00,
2013-11-19 13:45:00,58.4,23.7,30.01,ESE,107,1.0,5.0,26,0.00,,CLR,0.00,564.00,VWS V14.01,2013-11-19 18:45:00,
2013-11-19 13:50:00,58.1,25.2,30.01,ESE,107,2.0,5.0,28,0.00,,CLR,0.00,555.00,VWS V14.01,2013-11-19 18:50:00,
2013-11-19 13:55:00,58.0,25.1,30.01,ESE,121,2.0,5.0,28,0.00,,CLR,0.00,543.00,VWS V14.01,2013-11-19 18:55:00,
2013-11-19 14:00:00,58.3,25.4,30.01,ESE,121,0.0,5.0,28,0.00,,CLR,0.00,541.00,VWS V14.01,2013-11-19 19:00:00,
2013-11-19 14:30:00,58.1,24.3,29.99,NE,45,1.0,7.0,27,0.00,,CLR,0.00,522.00,VWS V14.01,2013-11-19 19:30:00,
2013-11-19 15:00:00,58.3,24.5,29.99,ESE,112,2.0,11.0,27,0.00,,CLR,0.00,201.00,VWS V14.01,2013-11-19 20:00:00,
2013-11-19 15:30:00,58.0,28.3,29.99,ESE,112,3.0,11.0,32,0.00,,CLR,0.00,36.00,VWS V14.01,2013-11-19 20:30:00,
2013-11-19 16:00:00,58.3,32.2,29.99,East,90,2.0,8.0,37,0.00,,CLR,0.00,45.00,VWS V14.01,2013-11-19 21:00:00,
2013-11-19 16:30:00,57.6,34.7,30.00,SE,135,5.0,11.0,42,0.00,,CLR,0.00,69.00,VWS V14.01,2013-11-19 21:30:00,
2013-11-19 17:00:00,56.9,30.2,30.00,SE,135,6.0,14.0,36,0.00,,CLR,0.00,45.00,VWS V14.01,2013-11-19 22:00:00,
2013-11-19 17:30:00,56.0,30.1,30.01,SE,135,5.0,11.0,37,0.00,,CLR,0.00,6.00,VWS V14.01,2013-11-19 22:30:00,
2013-11-19 18:00:00,55.0,33.5,30.05,ESE,103,0.0,6.0,44,0.00,,CLR,0.00,0.00,VWS V14.01,2013-11-19 23:00:00,
2013-11-19 18:12:00,56.0,30.1,30.01,SE,135,5.0,11.0,37,0.00,,CLR,0.00,6.00,VWS V14.01,2013-11-19 23:12:00,
2013-11-19 18:17:00,55.4,30.2,30.04,ESE,123,2.0,7.0,38,0.00,,CLR,0.00,0.00,VWS V14.01,2013-11-19 23:17:00,
2013-11-19 18:22:00,55.3,30.8,30.04,SE,134,3.0,7.0,39,0.00,,CLR,0.00,0.00,VWS V14.01,2013-11-19 23:22:00,
2013-11-19 18:27:00,55.6,32.3,30.04,SE,146,2.0,7.0,41,0.00,,CLR,0.00,0.00,VWS V14.01,2013-11-19 23:27:00,
2013-11-19 18:30:00,55.4,32.1,30.05,SE,142,2.0,7.0,41,0.00,,CLR,0.00,0.00,VWS V14.01,2013-11-19 23:30:00,
2013-11-19 18:32:00,55.4,33.3,30.05,SE,142,1.0,3.0,43,0.00,,CLR,0.00,0.00,VWS V14.01,2013-11-19 23:32:00,
2013-11-19 18:37:00,55.3,30.8,30.05,SE,130,2.0,5.0,39,0.00,,CLR,0.00,0.00,VWS V14.01,2013-11-19 23:37:00,
2013-11-19 18:42:00,55.1,31.2,30.05,SE,126,3.0,6.0,40,0.00,,CLR,0.00,0.00,VWS V14.01,2013-11-19 23:42:00,
2013-11-19 18:47:00,55.1,34.2,30.04,ESE,105,1.0,6.0,45,0.00,,CLR,0.00,0.00,VWS V14.01,2013-11-19 23:47:00,
2013-11-19 18:52:00,55.1,33.6,30.04,ESE,103,3.0,6.0,44,0.00,,CLR,0.00,0.00,VWS V14.01,2013-11-19 23:52:00,
2013-11-19 18:57:00,55.1,33.6,30.04,ESE,104,2.0,6.0,44,0.00,,CLR,0.00,0.00,VWS V14.01,2013-11-19 23:57:00,
2013-11-19 19:00:00,55.0,33.5,30.05,ESE,103,0.0,6.0,44,0.00,,CLR,0.00,0.00,VWS V14.01,2013-11-20 00:00:00,
2013-11-19 19:02:00,55.0,32.3,30.05,ESE,103,2.0,5.0,42,0.00,,CLR,0.00,0.00,VWS V14.01,2013-11-20 00:02:00,
2013-11-19 19:07:00,54.8,32.2,30.05,East,101,3.0,5.0,42,0.00,,CLR,0.00,0.00,VWS V14.01,2013-11-20 00:07:00,
2013-11-19 19:12:00,54.7,33.2,30.05,East,82,4.0,6.0,44,0.00,,CLR,0.00,0.00,VWS V14.01,2013-11-20 00:12:00,
2013-11-19 19:17:00,54.5,33.6,30.05,East,79,5.0,6.0,45,0.00,,CLR,0.00,0.00,VWS V14.01,2013-11-20 00:17:00,
2013-11-19 19:22:00,54.4,33.0,30.05,ENE,72,3.0,6.0,44,0.00,,CLR,0.00,0.00,VWS V14.01,2013-11-20 00:22:00,
2013-11-19 19:27:00,54.4,32.4,30.05,ENE,72,2.0,6.0,43,0.00,,CLR,0.00,0.00,VWS V14.01,2013-11-20 00:27:00,
2013-11-19 19:30:00,54.5,31.9,30.07,ENE,72,1.0,6.0,42,0.00,,CLR,0.00,0.00,VWS V14.01,2013-11-20 00:30:00,
2013-11-19 19:32:00,54.5,31.3,30.07,ENE,72,2.0,4.0,41,0.00,,CLR,0.00,0.00,VWS V14.01,2013-11-20 00:32:00,
2013-11-19 19:37:00,54.5,32.5,30.07,ENE,68,0.0,5.0,43,0.00,,CLR,0.00,0.00,VWS V14.01,2013-11-20 00:37:00,
2013-11-19 19:42:00,54.5,31.3,30.07,ENE,71,1.0,6.0,41,0.00,,CLR,0.00,0.00,VWS V14.01,2013-11-20 00:42:00,
2013-11-19 19:47:00,54.4,34.1,30.08,ENE,71,2.0,6.0,46,0.00,,CLR,0.00,0.00,VWS V14.01,2013-11-20 00:47:00,
2013-11-19 19:52:00,54.2,30.4,30.08,ENE,72,2.0,6.0,40,0.00,,CLR,0.00,0.00,VWS V14.01,2013-11-20 00:52:00,
2013-11-19 19:57:00,54.1,31.5,30.08,ENE,61,3.0,6.0,42,0.00,,CLR,0.00,0.00,VWS V14.01,2013-11-20 00:57:00,
2013-11-19 20:00:00,53.9,30.8,30.08,ENE,65,2.0,6.0,41,0.00,,CLR,0.00,0.00,VWS V14.01,2013-11-20 01:00:00,
2013-11-19 20:02:00,53.9,32.5,30.08,ENE,65,2.0,4.0,44,0.00,,CLR,0.00,0.00,VWS V14.01,2013-11-20 01:02:00,
2013-11-19 20:07:00,53.8,30.7,30.08,ENE,78,1.0,5.0,41,0.00,,CLR,0.00,0.00,VWS V14.01,2013-11-20 01:07:00,
2013-11-19 20:12:00,53.8,33.0,30.08,ENE,78,2.0,5.0,45,0.00,,CLR,0.00,0.00,VWS V14.01,2013-11-20 01:12:00,
2013-11-19 20:17:00,53.8,33.5,30.09,ENE,76,1.0,5.0,46,0.00,,CLR,0.00,0.00,VWS V14.01,2013-11-20 01:17:00,
2013-11-19 20:22:00,53.8,30.1,30.09,ENE,73,0.0,5.0,40,0.00,,CLR,0.00,0.00,VWS V14.01,2013-11-20 01:22:00,
2013-11-19 20:27:00,53.8,37.6,30.09,ENE,60,4.0,5.0,54,0.00,,CLR,0.00,0.00,VWS V14.01,2013-11-20 01:27:00,
2013-11-19 20:30:00,53.6,31.1,30.09,ENE,61,2.0,5.0,42,0.00,,CLR,0.00,0.00,VWS V14.01,2013-11-20 01:30:00,
2013-11-19 20:32:00,53.8,36.1,30.09,ENE,68,2.0,5.0,51,0.00,,CLR,0.00,0.00,VWS V14.01,2013-11-20 01:32:00,
2013-11-19 20:37:00,53.8,31.3,30.09,NE,53,3.0,5.0,42,0.00,,CLR,0.00,0.00,VWS V14.01,2013-11-20 01:37:00,
2013-11-19 20:42:00,53.6,33.9,30.09,NE,49,4.0,5.0,47,0.00,,CLR,0.00,0.00,VWS V14.01,2013-11-20 01:42:00,
2013-11-19 20:47:00,53.6,34.4,30.10,NE,49,3.0,5.0,48,0.00,,CLR,0.00,0.00,VWS V14.01,2013-11-20 01:47:00,
2013-11-19 20:52:00,53.5,32.1,30.10,NE,44,3.0,5.0,44,0.00,,CLR,0.00,0.00,VWS V14.01,2013-11-20 01:52:00,
2013-11-19 20:57:00,53.5,31.6,30.10,NE,34,2.0,7.0,43,0.00,,CLR,0.00,0.00,VWS V14.01,2013-11-20 01:57:00,
2013-11-19 21:00:00,53.5,31.0,30.10,NNE,30,4.0,7.0,42,0.00,,CLR,0.00,0.00,VWS V14.01,2013-11-20 02:00:00,
2013-11-19 21:02:00,53.3,32.0,30.10,NE,36,3.0,5.0,44,0.00,,CLR,0.00,0.00,VWS V14.01,2013-11-20 02:02:00,
2013-11-19 21:07:00,53.2,30.1,30.10,NE,53,1.0,7.0,41,0.00,,CLR,0.00,0.00,VWS V14.01,2013-11-20 02:07:00,
2013-11-19 21:12:00,53.1,31.8,30.10,ENE,59,3.0,7.0,44,0.00,,CLR,0.00,0.00,VWS V14.01,2013-11-20 02:12:00,
2013-11-19 21:17:00,53.1,32.9,30.10,NE,54,6.0,7.0,46,0.00,,CLR,0.00,0.00,VWS V14.01,2013-11-20 02:17:00,
2013-11-19 21:22:00,52.9,33.8,30.10,ENE,61,4.0,7.0,48,0.00,,CLR,0.00,0.00,VWS V14.01,2013-11-20 02:22:00,
2013-11-19 21:27:00,52.6,30.8,30.10,NE,49,5.0,8.0,43,0.00,,CLR,0.00,0.00,VWS V14.01,2013-11-20 02:27:00,
2013-11-19 21:30:00,52.5,31.2,30.10,NE,55,3.0,8.0,44,0.00,,CLR,0.00,0.00,VWS V14.01,2013-11-20 02:30:00,
2013-11-19 21:32:00,52.3,31.6,30.10,ENE,64,4.0,7.0,45,0.00,,CLR,0.00,0.00,VWS V14.01,2013-11-20 02:32:00,
2013-11-19 21:37:00,52.2,32.6,30.10,ENE,67,6.0,10.0,47,0.00,,CLR,0.00,0.00,VWS V14.01,2013-11-20 02:37:00,
2013-11-19 21:42:00,51.9,30.7,30.10,North,360,5.0,10.0,44,0.00,,CLR,0.00,0.00,VWS V14.01,2013-11-20 02:42:00,
2013-11-19 21:47:00,51.7,29.4,30.10,ENE,68,4.0,10.0,42,0.00,,CLR,0.00,0.00,VWS V14.01,2013-11-20 02:47:00,
2013-11-19 21:52:00,51.4,30.2,30.10,ENE,60,3.0,10.0,44,0.00,,CLR,0.00,0.00,VWS V14.01,2013-11-20 02:52:00,
2013-11-19 21:57:00,51.4,31.3,30.10,East,82,5.0,10.0,46,0.00,,CLR,0.00,0.00,VWS V14.01,2013-11-20 02:57:00,
2013-11-19 22:00:00,51.4,31.9,30.10,ENE,61,6.0,10.0,47,0.00,,CLR,0.00,0.00,VWS V14.01,2013-11-20 03:00:00,
2013-11-19 22:02:00,51.4,31.9,30.10,ENE,59,6.0,6.0,47,0.00,,CLR,0.00,0.00,VWS V14.01,2013-11-20 03:02:00,
2013-11-19 22:07:00,51.3,30.1,30.10,ENE,67,5.0,9.0,44,0.00,,CLR,0.00,0.00,VWS V14.01,2013-11-20 03:07:00,
2013-11-19 22:12:00,51.0,30.4,30.10,NE,51,4.0,9.0,45,0.00,,CLR,0.00,0.00,VWS V14.01,2013-11-20 03:12:00,
2013-11-19 22:17:00,51.1,33.6,30.11,ENE,62,5.0,9.0,51,0.00,,CLR,0.00,0.00,VWS V14.01,2013-11-20 03:17:00,
2013-11-19 22:22:00,51.0,32.5,30.11,East,86,4.0,9.0,49,0.00,,CLR,0.00,0.00,VWS V14.01,2013-11-20 03:22:00,
2013-11-19 22:27:00,51.0,32.0,30.11,ENE,76,6.0,9.0,48,0.00,,CLR,0.00,0.00,VWS V14.01,2013-11-20 03:27:00,
2013-11-19 22:30:00,51.0,29.9,30.10,North,360,7.0,12.0,44,0.00,,CLR,0.00,0.00,VWS V14.01,2013-11-20 03:30:00,
2013-11-19 22:32:00,51.0,35.4,30.10,East,82,10.0,10.0,55,0.00,,CLR,0.00,0.00,VWS V14.01,2013-11-20 03:32:00,
2013-11-19 22:37:00,50.8,30.8,30.10,ENE,63,6.0,12.0,46,0.00,,CLR,0.00,0.00,VWS V14.01,2013-11-20 03:37:00,
2013-11-19 22:42:00,50.7,29.6,30.10,ENE,76,6.0,12.0,44,0.00,,CLR,0.00,0.00,VWS V14.01,2013-11-20 03:42:00,
2013-11-19 22:47:00,50.7,29.6,30.11,East,92,4.0,12.0,44,0.00,,CLR,0.00,0.00,VWS V14.01,2013-11-20 03:47:00,
2013-11-19 22:52:00,50.7,31.7,30.11,ENE,70,7.0,12.0,48,0.00,,CLR,0.00,0.00,VWS V14.01,2013-11-20 03:52:00,
2013-11-19 22:57:00,50.5,32.1,30.11,ENE,71,6.0,12.0,49,0.00,,CLR,0.00,0.00,VWS V14.01,2013-11-20 03:57:00,
2013-11-19 23:00:00,50.5,29.4,30.12,North,360,7.0,12.0,44,0.00,,CLR,0.00,0.00,VWS V14.01,2013-11-20 04:00:00,
2013-11-19 23:02:00,50.4,29.3,30.12,East,82,5.0,9.0,44,0.00,,CLR,0.00,0.00,VWS V14.01,2013-11-20 04:02:00,
2013-11-19 23:07:00,50.4,29.9,30.12,NE,55,7.0,10.0,45,0.00,,CLR,0.00,0.00,VWS V14.01,2013-11-20 04:07:00,
2013-11-19 23:12:00,50.4,33.9,30.12,ENE,63,6.0,10.0,53,0.00,,CLR,0.00,0.00,VWS V14.01,2013-11-20 04:12:00,
2013-11-19 23:17:00,50.4,32.0,30.11,NE,34,9.0,12.0,49,0.00,,CLR,0.00,0.00,VWS V14.01,2013-11-20 04:17:00,
2013-11-19 23:22:00,50.5,30.5,30.11,NE,36,5.0,12.0,46,0.00,,CLR,0.00,0.00,VWS V14.01,2013-11-20 04:22:00,
2013-11-19 23:27:00,50.7,34.7,30.11,NE,47,5.0,12.0,54,0.00,,CLR,0.00,0.00,VWS V14.01,2013-11-20 04:27:00,
2013-11-19 23:30:00,50.7,32.8,30.12,NE,34,6.0,12.0,50,0.00,,CLR,0.00,0.00,VWS V14.01,2013-11-20 04:30:00,
2013-11-19 23:32:00,50.7,34.2,30.12,North,360,5.0,7.0,53,0.00,,CLR,0.00,0.00,VWS V14.01,2013-11-20 04:32:00,
2013-11-19 23:37:00,50.5,34.0,30.12,North,360,7.0,8.0,53,0.00,,CLR,0.00,0.00,VWS V14.01,2013-11-20 04:37:00,
2013-11-19 23:42:00,50.4,30.4,30.12,ENE,63,3.0,8.0,46,0.00,,CLR,0.00,0.00,VWS V14.01,2013-11-20 04:42:00,
2013-11-19 23:47:00,50.4,32.5,30.13,ENE,61,5.0,8.0,50,0.00,,CLR,0.00,0.00,VWS V14.01,2013-11-20 04:47:00,
2013-11-19 23:52:00,50.4,33.5,30.13,NE,55,6.0,9.0,52,0.00,,CLR,0.00,0.00,VWS V14.01,2013-11-20 04:52:00,
2013-11-19 23:57:00,50.1,33.7,30.13,NE,55,6.0,9.0,53,0.00,,CLR,0.00,0.00,VWS V14.01,2013-11-20 04:57:00,